Hauptseite
METAR-TAF:

METAR-TAF

Flughäfen :

Flughafen Santander

Santander, Spanien

Breite: 43-26N, Länge: 003-49W, Höhe: 6 m

Beobachtung

Neuester Wetterbericht von vor 44 Minuten, um 15:30 UTC
Wind 10 kt aus West, variierte zwischen West/Südwest und Nord/Nordwest
Temperatur 23°C
Luftfeuchtigkeit 73%
Luftdruck 1021 hPa
Sichtweite 10 km oder mehr
Aufgelockert bewölkt in der Höhe von 2800 ft

METAR: LEXJ 161530Z 28010KT 240V340 9999 SCT028 23/18 Q1021

Zeit: 18:14 (16:14 UTC)

Prognose

Neuester Wetterbericht von vor 2 Stunden und 14 Minuten, um 14:00 UTC
Gültige Prognose vom 16 um 15 UTC bis 17 um 15 UTC
Wind 9 kt aus West
Sichtweite 10 km oder mehr
Aufgelockert bewölkt in der Höhe von 3500 ft
Zeitweise
vom 16 um 15 UTC bis 16 um 20 UTC
Wind 12 kt aus Nordwest

TAF: LEXJ 161400Z 1615/1715 26009KT 9999 SCT035 TX25/1714Z TN16/1705Z TEMPO 1615/1620 32012KT

Wetterbeobachtungen und Prognosen von mehr als 4000 Flughäfen (METAR und TAF Bericht).

Die verfügbaren Stationen werden durch gelbe und rote Markierungen auf der Karte dargestellt.

Führen Sie die Maus auf sie, um den Namen der Station zu sehen.

Darauf klicken, um die Beobachtung von Wetterbeobachtungen und Prognosen zu sehen.

Um die Karte zu ändern : klicken Sie auf den grünen Tasten mit einem schwarzen Kreuz Zum Vergrößern, auf den grünen Button mit einem Gedankenstrich zu verkleinern, oder auf die grünen Pfeile für benachbarte Karten.


METAR-TAF: